To NAV CANADA Home Page Login to a new session Search on AWWS site Feedback and Comments Disclaimer Vers la page française équivalente Tips FAQ What's new on the site To the Forecasts and Observations / NOTAM section To "File a Flight Plan" website Publications and other links Update of the User's profile FIC Telephone Numbers My Weather Data Folder Route Weather Data Regional Weather Data Local Weather Data To the Forecasts and Observations / NOTAM section
Request Generated 04/23/2014 at 14:53:29 UTC . Weather information available at that time is displayed.

METAR/TAF

ST. LEONARD/NB    

METAR CYSL 231400Z CCA 07002KT 1 1/2SM -RA BR OVC004 06/05 A2942 RMK ST8 CIG RAG SLP972=
METAR CYSL 231400Z 07002KT 1 1/2SM -RA BR OVC004 06/05 A2942 RMK ST8 SLP972=
METAR CYSL 231300Z 08005KT 2SM -RA BR OVC004 05/05 A2942 RMK ST8 SLP972=
METAR CYSL 231200Z 07004KT 4SM -RA BR OVC006 05/05 A2942 RMK ST8 SLP971=

CYSL - No TAF is issued for this station

Your time UTC time
Weather data provided by Environment Canada and NAV CANADA